sensor_id;sensor_type;location;lat;lon;timestamp;temperature;humidity
65036;DHT22;51603;49.300;8.880;2024-02-21T00:00:10;7.50;99.90
65036;DHT22;51603;49.300;8.880;2024-02-21T00:02:37;7.50;99.90
65036;DHT22;51603;49.300;8.880;2024-02-21T00:05:02;7.50;99.90
65036;DHT22;51603;49.300;8.880;2024-02-21T00:07:28;7.60;99.90
65036;DHT22;51603;49.300;8.880;2024-02-21T00:09:53;7.50;99.90
65036;DHT22;51603;49.300;8.880;2024-02-21T00:12:19;7.60;99.90
65036;DHT22;51603;49.300;8.880;2024-02-21T00:14:45;7.60;99.90
65036;DHT22;51603;49.300;8.880;2024-02-21T00:17:10;7.60;99.90
65036;DHT22;51603;49.300;8.880;2024-02-21T00:19:36;7.60;99.90
65036;DHT22;51603;49.300;8.880;2024-02-21T00:22:01;7.60;99.90
65036;DHT22;51603;49.300;8.880;2024-02-21T00:24:27;7.60;99.90
65036;DHT22;51603;49.300;8.880;2024-02-21T00:26:53;7.60;99.90
65036;DHT22;51603;49.300;8.880;2024-02-21T00:29:19;7.60;99.90
65036;DHT22;51603;49.300;8.880;2024-02-21T00:31:44;7.60;99.90
65036;DHT22;51603;49.300;8.880;2024-02-21T00:34:10;7.60;99.90
65036;DHT22;51603;49.300;8.880;2024-02-21T00:36:37;7.60;99.90
65036;DHT22;51603;49.300;8.880;2024-02-21T00:39:03;7.70;99.90
65036;DHT22;51603;49.300;8.880;2024-02-21T00:41:29;7.80;99.90
65036;DHT22;51603;49.300;8.880;2024-02-21T00:43:54;7.80;99.90
65036;DHT22;51603;49.300;8.880;2024-02-21T00:46:20;7.80;99.90
65036;DHT22;51603;49.300;8.880;2024-02-21T00:48:45;7.80;99.90
65036;DHT22;51603;49.300;8.880;2024-02-21T00:51:11;7.80;99.90
65036;DHT22;51603;49.300;8.880;2024-02-21T00:53:36;7.90;99.90
65036;DHT22;51603;49.300;8.880;2024-02-21T00:56:05;7.90;99.90
65036;DHT22;51603;49.300;8.880;2024-02-21T00:58:30;7.90;99.90
65036;DHT22;51603;49.300;8.880;2024-02-21T01:00:56;7.90;99.90
65036;DHT22;51603;49.300;8.880;2024-02-21T01:03:21;7.80;99.90
65036;DHT22;51603;49.300;8.880;2024-02-21T01:05:47;7.80;99.90
65036;DHT22;51603;49.300;8.880;2024-02-21T01:08:12;7.80;99.90
65036;DHT22;51603;49.300;8.880;2024-02-21T01:10:38;7.80;99.90
65036;DHT22;51603;49.300;8.880;2024-02-21T01:13:03;7.80;99.90
65036;DHT22;51603;49.300;8.880;2024-02-21T01:15:29;7.80;99.90
65036;DHT22;51603;49.300;8.880;2024-02-21T01:17:54;7.80;99.90
65036;DHT22;51603;49.300;8.880;2024-02-21T01:20:21;7.80;99.90
65036;DHT22;51603;49.300;8.880;2024-02-21T01:22:46;7.70;99.90
65036;DHT22;51603;49.300;8.880;2024-02-21T01:25:12;7.70;99.90
65036;DHT22;51603;49.300;8.880;2024-02-21T01:27:37;7.70;99.90
65036;DHT22;51603;49.300;8.880;2024-02-21T01:30:04;7.70;99.90
65036;DHT22;51603;49.300;8.880;2024-02-21T01:32:29;7.60;99.90
65036;DHT22;51603;49.300;8.880;2024-02-21T01:34:55;7.60;99.90
65036;DHT22;51603;49.300;8.880;2024-02-21T01:37:20;7.60;99.90
65036;DHT22;51603;49.300;8.880;2024-02-21T01:39:46;7.60;99.90
65036;DHT22;51603;49.300;8.880;2024-02-21T01:42:12;7.60;99.90
65036;DHT22;51603;49.300;8.880;2024-02-21T01:44:37;7.60;99.90
65036;DHT22;51603;49.300;8.880;2024-02-21T01:47:03;7.60;99.90
65036;DHT22;51603;49.300;8.880;2024-02-21T01:49:29;7.60;99.90
65036;DHT22;51603;49.300;8.880;2024-02-21T01:51:55;7.60;99.90
65036;DHT22;51603;49.300;8.880;2024-02-21T01:54:21;7.50;99.90
65036;DHT22;51603;49.300;8.880;2024-02-21T01:56:47;7.50;99.90
65036;DHT22;51603;49.300;8.880;2024-02-21T01:59:13;7.40;99.90
65036;DHT22;51603;49.300;8.880;2024-02-21T02:01:40;7.50;99.90
65036;DHT22;51603;49.300;8.880;2024-02-21T02:04:07;7.50;99.90
65036;DHT22;51603;49.300;8.880;2024-02-21T02:06:32;7.50;99.90
65036;DHT22;51603;49.300;8.880;2024-02-21T02:08:58;7.50;99.90
65036;DHT22;51603;49.300;8.880;2024-02-21T02:11:23;7.50;99.90
65036;DHT22;51603;49.300;8.880;2024-02-21T02:13:49;7.50;99.90
65036;DHT22;51603;49.300;8.880;2024-02-21T02:16:15;7.50;99.90
65036;DHT22;51603;49.300;8.880;2024-02-21T02:18:40;7.40;99.90
65036;DHT22;51603;49.300;8.880;2024-02-21T02:21:12;7.40;99.90
65036;DHT22;51603;49.300;8.880;2024-02-21T02:23:39;7.40;99.90
65036;DHT22;51603;49.300;8.880;2024-02-21T02:26:05;7.40;99.90
65036;DHT22;51603;49.300;8.880;2024-02-21T02:28:32;7.40;99.90
65036;DHT22;51603;49.300;8.880;2024-02-21T02:30:58;7.50;99.90
65036;DHT22;51603;49.300;8.880;2024-02-21T02:33:23;7.50;99.90
65036;DHT22;51603;49.300;8.880;2024-02-21T02:35:49;7.40;99.90
65036;DHT22;51603;49.300;8.880;2024-02-21T02:38:14;7.30;99.90
65036;DHT22;51603;49.300;8.880;2024-02-21T02:40:41;7.30;99.90
65036;DHT22;51603;49.300;8.880;2024-02-21T02:43:07;7.30;99.90
65036;DHT22;51603;49.300;8.880;2024-02-21T02:45:33;7.30;99.90
65036;DHT22;51603;49.300;8.880;2024-02-21T02:47:59;7.30;99.90
65036;DHT22;51603;49.300;8.880;2024-02-21T02:50:25;7.30;99.90
65036;DHT22;51603;49.300;8.880;2024-02-21T02:52:51;7.30;99.90
65036;DHT22;51603;49.300;8.880;2024-02-21T02:55:16;7.30;99.90
65036;DHT22;51603;49.300;8.880;2024-02-21T02:57:42;7.20;99.90
65036;DHT22;51603;49.300;8.880;2024-02-21T03:00:08;7.20;99.90
65036;DHT22;51603;49.300;8.880;2024-02-21T03:02:37;7.10;99.90
65036;DHT22;51603;49.300;8.880;2024-02-21T03:05:18;7.10;99.90
65036;DHT22;51603;49.300;8.880;2024-02-21T03:07:44;7.10;99.90
65036;DHT22;51603;49.300;8.880;2024-02-21T03:10:10;7.10;99.90
65036;DHT22;51603;49.300;8.880;2024-02-21T03:12:36;7.10;99.90
65036;DHT22;51603;49.300;8.880;2024-02-21T03:15:02;7.00;99.90
65036;DHT22;51603;49.300;8.880;2024-02-21T03:17:27;7.00;99.90
65036;DHT22;51603;49.300;8.880;2024-02-21T03:19:53;7.00;99.90
65036;DHT22;51603;49.300;8.880;2024-02-21T03:22:20;6.90;99.90
65036;DHT22;51603;49.300;8.880;2024-02-21T03:24:46;7.00;99.90
65036;DHT22;51603;49.300;8.880;2024-02-21T03:27:11;6.90;99.90
65036;DHT22;51603;49.300;8.880;2024-02-21T03:29:37;6.90;99.90
65036;DHT22;51603;49.300;8.880;2024-02-21T03:32:03;6.90;99.90
65036;DHT22;51603;49.300;8.880;2024-02-21T03:34:29;6.80;99.90
65036;DHT22;51603;49.300;8.880;2024-02-21T03:36:54;6.80;99.90
65036;DHT22;51603;49.300;8.880;2024-02-21T03:39:20;6.80;99.90
65036;DHT22;51603;49.300;8.880;2024-02-21T03:41:46;6.80;99.90
65036;DHT22;51603;49.300;8.880;2024-02-21T03:44:12;6.80;99.90
65036;DHT22;51603;49.300;8.880;2024-02-21T03:46:37;6.70;99.90
65036;DHT22;51603;49.300;8.880;2024-02-21T03:49:03;6.80;99.90
65036;DHT22;51603;49.300;8.880;2024-02-21T03:51:28;6.70;99.90
65036;DHT22;51603;49.300;8.880;2024-02-21T03:53:54;6.80;99.90
65036;DHT22;51603;49.300;8.880;2024-02-21T03:56:19;6.70;99.90
65036;DHT22;51603;49.300;8.880;2024-02-21T03:58:45;6.70;99.90
65036;DHT22;51603;49.300;8.880;2024-02-21T04:01:10;6.60;99.90
65036;DHT22;51603;49.300;8.880;2024-02-21T04:03:36;6.60;99.90
65036;DHT22;51603;49.300;8.880;2024-02-21T04:06:01;6.60;99.90
65036;DHT22;51603;49.300;8.880;2024-02-21T04:08:27;6.50;99.90
65036;DHT22;51603;49.300;8.880;2024-02-21T04:10:52;6.50;99.90
65036;DHT22;51603;49.300;8.880;2024-02-21T04:13:18;6.40;99.90
65036;DHT22;51603;49.300;8.880;2024-02-21T04:15:43;6.40;99.90
65036;DHT22;51603;49.300;8.880;2024-02-21T04:18:09;6.40;99.90
65036;DHT22;51603;49.300;8.880;2024-02-21T04:20:35;6.40;99.90
65036;DHT22;51603;49.300;8.880;2024-02-21T04:23:01;6.40;99.90
65036;DHT22;51603;49.300;8.880;2024-02-21T04:25:26;6.40;99.90
65036;DHT22;51603;49.300;8.880;2024-02-21T04:27:52;6.40;99.90
65036;DHT22;51603;49.300;8.880;2024-02-21T04:30:17;6.40;99.90
65036;DHT22;51603;49.300;8.880;2024-02-21T04:32:43;6.40;99.90
65036;DHT22;51603;49.300;8.880;2024-02-21T04:35:08;6.50;99.90
65036;DHT22;51603;49.300;8.880;2024-02-21T04:37:34;6.60;99.90
65036;DHT22;51603;49.300;8.880;2024-02-21T04:40:00;6.60;99.90
65036;DHT22;51603;49.300;8.880;2024-02-21T04:42:25;6.60;99.90
65036;DHT22;51603;49.300;8.880;2024-02-21T04:44:51;6.60;99.90
65036;DHT22;51603;49.300;8.880;2024-02-21T04:47:17;6.60;99.90
65036;DHT22;51603;49.300;8.880;2024-02-21T04:49:42;6.60;99.90
65036;DHT22;51603;49.300;8.880;2024-02-21T04:52:08;6.50;99.90
65036;DHT22;51603;49.300;8.880;2024-02-21T04:54:34;6.50;99.90
65036;DHT22;51603;49.300;8.880;2024-02-21T04:57:01;6.40;99.90
65036;DHT22;51603;49.300;8.880;2024-02-21T04:59:26;6.40;99.90
65036;DHT22;51603;49.300;8.880;2024-02-21T05:01:52;6.30;99.90
65036;DHT22;51603;49.300;8.880;2024-02-21T05:04:17;6.20;99.90
65036;DHT22;51603;49.300;8.880;2024-02-21T05:06:43;6.20;99.90
65036;DHT22;51603;49.300;8.880;2024-02-21T05:09:09;6.10;99.90
65036;DHT22;51603;49.300;8.880;2024-02-21T05:11:36;6.10;99.90
65036;DHT22;51603;49.300;8.880;2024-02-21T05:14:01;6.00;99.90
65036;DHT22;51603;49.300;8.880;2024-02-21T05:16:27;6.00;99.90
65036;DHT22;51603;49.300;8.880;2024-02-21T05:18:52;5.90;99.90
65036;DHT22;51603;49.300;8.880;2024-02-21T05:21:18;5.90;99.90
65036;DHT22;51603;49.300;8.880;2024-02-21T05:23:44;5.90;99.90
65036;DHT22;51603;49.300;8.880;2024-02-21T05:26:10;5.80;99.90
65036;DHT22;51603;49.300;8.880;2024-02-21T05:28:35;5.70;99.90
65036;DHT22;51603;49.300;8.880;2024-02-21T05:31:01;5.70;99.90
65036;DHT22;51603;49.300;8.880;2024-02-21T05:33:26;5.60;99.90
65036;DHT22;51603;49.300;8.880;2024-02-21T05:35:52;5.60;99.90
65036;DHT22;51603;49.300;8.880;2024-02-21T05:38:18;5.60;99.90
65036;DHT22;51603;49.300;8.880;2024-02-21T05:40:45;5.60;99.90
65036;DHT22;51603;49.300;8.880;2024-02-21T05:43:10;5.60;99.90
65036;DHT22;51603;49.300;8.880;2024-02-21T05:45:36;5.50;99.90
65036;DHT22;51603;49.300;8.880;2024-02-21T05:48:03;5.60;99.90
65036;DHT22;51603;49.300;8.880;2024-02-21T05:50:29;5.60;99.90
65036;DHT22;51603;49.300;8.880;2024-02-21T05:52:55;5.50;99.90
65036;DHT22;51603;49.300;8.880;2024-02-21T05:55:21;5.50;99.90
65036;DHT22;51603;49.300;8.880;2024-02-21T05:57:46;5.50;99.90
65036;DHT22;51603;49.300;8.880;2024-02-21T06:00:13;5.50;99.90
65036;DHT22;51603;49.300;8.880;2024-02-21T06:02:39;5.50;99.90
65036;DHT22;51603;49.300;8.880;2024-02-21T06:05:05;5.50;99.90
65036;DHT22;51603;49.300;8.880;2024-02-21T06:07:33;5.30;99.90
65036;DHT22;51603;49.300;8.880;2024-02-21T06:09:59;5.30;99.90
65036;DHT22;51603;49.300;8.880;2024-02-21T06:12:25;5.30;99.90
65036;DHT22;51603;49.300;8.880;2024-02-21T06:14:50;5.30;99.90
65036;DHT22;51603;49.300;8.880;2024-02-21T06:17:16;5.30;99.90
65036;DHT22;51603;49.300;8.880;2024-02-21T06:19:43;5.30;99.90
65036;DHT22;51603;49.300;8.880;2024-02-21T06:22:08;5.30;99.90
65036;DHT22;51603;49.300;8.880;2024-02-21T06:24:35;5.30;99.90
65036;DHT22;51603;49.300;8.880;2024-02-21T06:27:02;5.30;99.90
65036;DHT22;51603;49.300;8.880;2024-02-21T06:29:27;5.30;99.90
65036;DHT22;51603;49.300;8.880;2024-02-21T06:31:53;5.30;99.90
65036;DHT22;51603;49.300;8.880;2024-02-21T06:34:18;5.20;99.90
65036;DHT22;51603;49.300;8.880;2024-02-21T06:36:45;5.20;99.90
65036;DHT22;51603;49.300;8.880;2024-02-21T06:39:10;5.20;99.90
65036;DHT22;51603;49.300;8.880;2024-02-21T06:41:37;5.20;99.90
65036;DHT22;51603;49.300;8.880;2024-02-21T06:44:02;5.20;99.90
65036;DHT22;51603;49.300;8.880;2024-02-21T06:46:29;5.20;99.90
65036;DHT22;51603;49.300;8.880;2024-02-21T06:48:55;5.20;99.90
65036;DHT22;51603;49.300;8.880;2024-02-21T06:51:24;5.20;99.90
65036;DHT22;51603;49.300;8.880;2024-02-21T06:53:50;5.30;99.90
65036;DHT22;51603;49.300;8.880;2024-02-21T06:56:23;5.30;99.90
65036;DHT22;51603;49.300;8.880;2024-02-21T06:58:53;5.40;99.90
65036;DHT22;51603;49.300;8.880;2024-02-21T07:01:18;5.30;99.90
65036;DHT22;51603;49.300;8.880;2024-02-21T07:03:44;5.40;99.90
65036;DHT22;51603;49.300;8.880;2024-02-21T07:06:10;5.50;99.90
65036;DHT22;51603;49.300;8.880;2024-02-21T07:08:36;5.50;99.90
65036;DHT22;51603;49.300;8.880;2024-02-21T07:11:02;5.60;99.90
65036;DHT22;51603;49.300;8.880;2024-02-21T07:13:28;5.60;99.90
65036;DHT22;51603;49.300;8.880;2024-02-21T07:15:53;5.70;99.90
65036;DHT22;51603;49.300;8.880;2024-02-21T07:18:19;5.70;99.90
65036;DHT22;51603;49.300;8.880;2024-02-21T07:20:45;5.80;99.90
65036;DHT22;51603;49.300;8.880;2024-02-21T07:23:11;5.90;99.90
65036;DHT22;51603;49.300;8.880;2024-02-21T07:25:36;5.90;99.90
65036;DHT22;51603;49.300;8.880;2024-02-21T07:28:03;5.90;99.90
65036;DHT22;51603;49.300;8.880;2024-02-21T07:30:29;5.90;99.90
65036;DHT22;51603;49.300;8.880;2024-02-21T07:32:55;6.00;99.90
65036;DHT22;51603;49.300;8.880;2024-02-21T07:35:20;6.10;99.90
65036;DHT22;51603;49.300;8.880;2024-02-21T07:37:46;6.10;99.90
65036;DHT22;51603;49.300;8.880;2024-02-21T07:40:17;6.20;99.90
65036;DHT22;51603;49.300;8.880;2024-02-21T07:42:43;6.20;99.90
65036;DHT22;51603;49.300;8.880;2024-02-21T07:45:09;6.30;99.90
65036;DHT22;51603;49.300;8.880;2024-02-21T07:47:39;6.40;99.90
65036;DHT22;51603;49.300;8.880;2024-02-21T07:50:05;6.40;99.90
65036;DHT22;51603;49.300;8.880;2024-02-21T07:52:31;6.50;99.90
65036;DHT22;51603;49.300;8.880;2024-02-21T07:54:56;6.50;99.90
65036;DHT22;51603;49.300;8.880;2024-02-21T07:57:22;6.60;99.90
65036;DHT22;51603;49.300;8.880;2024-02-21T07:59:48;6.60;99.90
65036;DHT22;51603;49.300;8.880;2024-02-21T08:02:20;6.70;99.90
65036;DHT22;51603;49.300;8.880;2024-02-21T08:04:46;6.70;99.90
65036;DHT22;51603;49.300;8.880;2024-02-21T08:07:12;6.80;99.90
65036;DHT22;51603;49.300;8.880;2024-02-21T08:09:39;6.90;99.90
65036;DHT22;51603;49.300;8.880;2024-02-21T08:12:05;6.90;99.90
65036;DHT22;51603;49.300;8.880;2024-02-21T08:14:31;6.90;99.90
65036;DHT22;51603;49.300;8.880;2024-02-21T08:16:57;7.00;99.90
65036;DHT22;51603;49.300;8.880;2024-02-21T08:19:22;7.00;99.90
65036;DHT22;51603;49.300;8.880;2024-02-21T08:21:52;7.00;99.90
65036;DHT22;51603;49.300;8.880;2024-02-21T08:24:18;7.00;99.90
65036;DHT22;51603;49.300;8.880;2024-02-21T08:26:44;7.10;99.90
65036;DHT22;51603;49.300;8.880;2024-02-21T08:29:11;7.10;99.90
65036;DHT22;51603;49.300;8.880;2024-02-21T08:31:36;7.10;99.90
65036;DHT22;51603;49.300;8.880;2024-02-21T08:34:04;7.10;99.90
65036;DHT22;51603;49.300;8.880;2024-02-21T08:36:34;7.20;99.90
65036;DHT22;51603;49.300;8.880;2024-02-21T08:39:00;7.20;99.90
65036;DHT22;51603;49.300;8.880;2024-02-21T08:41:26;7.20;99.90
65036;DHT22;51603;49.300;8.880;2024-02-21T08:43:52;7.20;99.90
65036;DHT22;51603;49.300;8.880;2024-02-21T08:46:20;7.20;99.90
65036;DHT22;51603;49.300;8.880;2024-02-21T08:48:46;7.30;99.90
65036;DHT22;51603;49.300;8.880;2024-02-21T08:51:13;7.30;99.90
65036;DHT22;51603;49.300;8.880;2024-02-21T08:53:38;7.30;99.90
65036;DHT22;51603;49.300;8.880;2024-02-21T08:56:05;7.40;99.90
65036;DHT22;51603;49.300;8.880;2024-02-21T08:58:30;7.40;99.90
65036;DHT22;51603;49.300;8.880;2024-02-21T09:00:56;7.50;99.90
65036;DHT22;51603;49.300;8.880;2024-02-21T09:03:24;7.50;99.90
65036;DHT22;51603;49.300;8.880;2024-02-21T09:05:50;7.50;99.90
65036;DHT22;51603;49.300;8.880;2024-02-21T09:08:16;7.50;99.90
65036;DHT22;51603;49.300;8.880;2024-02-21T09:10:43;7.50;99.90
65036;DHT22;51603;49.300;8.880;2024-02-21T09:13:09;7.60;99.90
65036;DHT22;51603;49.300;8.880;2024-02-21T09:15:34;7.60;99.90
65036;DHT22;51603;49.300;8.880;2024-02-21T09:18:01;7.60;99.90
65036;DHT22;51603;49.300;8.880;2024-02-21T09:20:26;7.70;99.90
65036;DHT22;51603;49.300;8.880;2024-02-21T09:22:52;7.70;99.90
65036;DHT22;51603;49.300;8.880;2024-02-21T09:25:18;7.80;99.90
65036;DHT22;51603;49.300;8.880;2024-02-21T09:27:44;7.80;99.90
65036;DHT22;51603;49.300;8.880;2024-02-21T09:30:10;7.80;99.90
65036;DHT22;51603;49.300;8.880;2024-02-21T09:32:36;7.90;99.90
65036;DHT22;51603;49.300;8.880;2024-02-21T09:35:04;7.90;99.90
65036;DHT22;51603;49.300;8.880;2024-02-21T09:37:33;7.90;99.90
65036;DHT22;51603;49.300;8.880;2024-02-21T09:40:00;8.00;99.90
65036;DHT22;51603;49.300;8.880;2024-02-21T09:42:38;8.10;99.90
65036;DHT22;51603;49.300;8.880;2024-02-21T09:45:33;8.20;99.90
65036;DHT22;51603;49.300;8.880;2024-02-21T09:50:43;8.30;99.90
65036;DHT22;51603;49.300;8.880;2024-02-21T09:53:12;8.40;99.90
65036;DHT22;51603;49.300;8.880;2024-02-21T09:55:39;8.40;99.90
65036;DHT22;51603;49.300;8.880;2024-02-21T09:58:10;8.50;99.90
65036;DHT22;51603;49.300;8.880;2024-02-21T10:00:36;8.60;99.90
65036;DHT22;51603;49.300;8.880;2024-02-21T10:03:02;8.80;99.90
65036;DHT22;51603;49.300;8.880;2024-02-21T10:05:33;8.80;99.90
65036;DHT22;51603;49.300;8.880;2024-02-21T10:07:59;9.00;99.90
65036;DHT22;51603;49.300;8.880;2024-02-21T10:10:26;9.20;99.90
65036;DHT22;51603;49.300;8.880;2024-02-21T10:12:53;9.20;99.90
65036;DHT22;51603;49.300;8.880;2024-02-21T10:15:24;9.20;99.90
65036;DHT22;51603;49.300;8.880;2024-02-21T10:17:59;9.30;99.90
65036;DHT22;51603;49.300;8.880;2024-02-21T10:20:26;9.30;99.90
65036;DHT22;51603;49.300;8.880;2024-02-21T10:23:01;9.30;99.90
65036;DHT22;51603;49.300;8.880;2024-02-21T10:25:29;9.30;99.90
65036;DHT22;51603;49.300;8.880;2024-02-21T10:27:56;9.30;99.90
65036;DHT22;51603;49.300;8.880;2024-02-21T10:30:22;9.40;99.90
65036;DHT22;51603;49.300;8.880;2024-02-21T10:32:51;9.50;99.90
65036;DHT22;51603;49.300;8.880;2024-02-21T10:35:26;9.50;99.90
65036;DHT22;51603;49.300;8.880;2024-02-21T10:37:54;9.60;99.90
65036;DHT22;51603;49.300;8.880;2024-02-21T10:40:29;9.70;99.90
65036;DHT22;51603;49.300;8.880;2024-02-21T10:43:00;9.70;99.90
65036;DHT22;51603;49.300;8.880;2024-02-21T10:45:34;9.70;99.90
65036;DHT22;51603;49.300;8.880;2024-02-21T10:48:22;9.70;99.90
65036;DHT22;51603;49.300;8.880;2024-02-21T10:51:05;9.70;99.90
65036;DHT22;51603;49.300;8.880;2024-02-21T10:56:34;9.80;99.90
65036;DHT22;51603;49.300;8.880;2024-02-21T10:59:03;9.80;99.90
65036;DHT22;51603;49.300;8.880;2024-02-21T11:01:29;9.80;99.90
65036;DHT22;51603;49.300;8.880;2024-02-21T11:04:05;9.90;99.90
65036;DHT22;51603;49.300;8.880;2024-02-21T11:06:32;10.00;99.90
65036;DHT22;51603;49.300;8.880;2024-02-21T11:09:03;10.20;99.90
65036;DHT22;51603;49.300;8.880;2024-02-21T11:11:48;10.20;99.90
65036;DHT22;51603;49.300;8.880;2024-02-21T11:14:22;10.20;99.90
65036;DHT22;51603;49.300;8.880;2024-02-21T11:16:48;10.20;99.90
65036;DHT22;51603;49.300;8.880;2024-02-21T11:19:26;10.20;99.90
65036;DHT22;51603;49.300;8.880;2024-02-21T11:21:53;10.10;99.90
65036;DHT22;51603;49.300;8.880;2024-02-21T11:24:34;10.10;99.90
65036;DHT22;51603;49.300;8.880;2024-02-21T11:27:13;10.20;99.90
65036;DHT22;51603;49.300;8.880;2024-02-21T11:32:18;10.40;99.90
65036;DHT22;51603;49.300;8.880;2024-02-21T11:35:03;10.30;99.90
65036;DHT22;51603;49.300;8.880;2024-02-21T11:37:32;10.30;99.90
65036;DHT22;51603;49.300;8.880;2024-02-21T11:40:07;10.30;99.90
65036;DHT22;51603;49.300;8.880;2024-02-21T11:42:35;10.30;99.90
65036;DHT22;51603;49.300;8.880;2024-02-21T11:45:01;10.20;99.90
65036;DHT22;51603;49.300;8.880;2024-02-21T11:47:28;10.20;99.90
65036;DHT22;51603;49.300;8.880;2024-02-21T11:49:54;10.20;99.90
65036;DHT22;51603;49.300;8.880;2024-02-21T11:52:24;10.10;99.90
65036;DHT22;51603;49.300;8.880;2024-02-21T11:54:53;10.10;99.90
65036;DHT22;51603;49.300;8.880;2024-02-21T11:57:20;10.20;99.90
65036;DHT22;51603;49.300;8.880;2024-02-21T11:59:46;10.20;99.90
65036;DHT22;51603;49.300;8.880;2024-02-21T12:02:12;10.30;99.90
65036;DHT22;51603;49.300;8.880;2024-02-21T12:04:38;10.30;99.90
65036;DHT22;51603;49.300;8.880;2024-02-21T12:07:04;10.30;99.90
65036;DHT22;51603;49.300;8.880;2024-02-21T12:09:30;10.30;99.90
65036;DHT22;51603;49.300;8.880;2024-02-21T12:12:03;10.30;99.90
65036;DHT22;51603;49.300;8.880;2024-02-21T12:14:30;10.30;99.90
65036;DHT22;51603;49.300;8.880;2024-02-21T12:16:56;10.40;99.90
65036;DHT22;51603;49.300;8.880;2024-02-21T12:19:22;10.40;99.90
65036;DHT22;51603;49.300;8.880;2024-02-21T12:21:48;10.50;99.90
65036;DHT22;51603;49.300;8.880;2024-02-21T12:24:17;10.50;99.90
65036;DHT22;51603;49.300;8.880;2024-02-21T12:26:46;10.40;99.90
65036;DHT22;51603;49.300;8.880;2024-02-21T12:29:11;10.40;99.90
65036;DHT22;51603;49.300;8.880;2024-02-21T12:31:40;10.40;99.90
65036;DHT22;51603;49.300;8.880;2024-02-21T12:34:06;10.50;99.90
65036;DHT22;51603;49.300;8.880;2024-02-21T12:36:32;10.50;99.90
65036;DHT22;51603;49.300;8.880;2024-02-21T12:38:58;10.60;99.90
65036;DHT22;51603;49.300;8.880;2024-02-21T12:41:24;10.60;99.90
65036;DHT22;51603;49.300;8.880;2024-02-21T12:43:51;10.60;99.90
65036;DHT22;51603;49.300;8.880;2024-02-21T12:46:16;10.70;99.90
65036;DHT22;51603;49.300;8.880;2024-02-21T12:48:42;10.60;99.90
65036;DHT22;51603;49.300;8.880;2024-02-21T12:51:08;10.60;99.90
65036;DHT22;51603;49.300;8.880;2024-02-21T12:53:33;10.80;99.90
65036;DHT22;51603;49.300;8.880;2024-02-21T12:55:59;10.80;99.90
65036;DHT22;51603;49.300;8.880;2024-02-21T12:58:25;10.80;99.90
65036;DHT22;51603;49.300;8.880;2024-02-21T13:00:50;10.80;99.90
65036;DHT22;51603;49.300;8.880;2024-02-21T13:03:16;10.70;99.90
65036;DHT22;51603;49.300;8.880;2024-02-21T13:05:42;10.60;99.90
65036;DHT22;51603;49.300;8.880;2024-02-21T13:08:08;10.60;99.90
65036;DHT22;51603;49.300;8.880;2024-02-21T13:10:35;10.60;99.90
65036;DHT22;51603;49.300;8.880;2024-02-21T13:13:01;10.60;99.90
65036;DHT22;51603;49.300;8.880;2024-02-21T13:15:27;10.70;99.90
65036;DHT22;51603;49.300;8.880;2024-02-21T13:17:55;10.70;99.90
65036;DHT22;51603;49.300;8.880;2024-02-21T13:20:20;10.70;99.90
65036;DHT22;51603;49.300;8.880;2024-02-21T13:22:46;10.80;99.90
65036;DHT22;51603;49.300;8.880;2024-02-21T13:25:12;10.90;99.90
65036;DHT22;51603;49.300;8.880;2024-02-21T13:27:41;10.80;99.90
65036;DHT22;51603;49.300;8.880;2024-02-21T13:30:07;10.90;99.90
65036;DHT22;51603;49.300;8.880;2024-02-21T13:32:37;10.90;99.90
65036;DHT22;51603;49.300;8.880;2024-02-21T13:35:06;10.90;99.90
65036;DHT22;51603;49.300;8.880;2024-02-21T13:37:32;10.90;99.90
65036;DHT22;51603;49.300;8.880;2024-02-21T13:39:57;11.00;99.40
65036;DHT22;51603;49.300;8.880;2024-02-21T13:42:23;11.00;99.40
65036;DHT22;51603;49.300;8.880;2024-02-21T13:44:52;11.00;99.10
65036;DHT22;51603;49.300;8.880;2024-02-21T13:47:18;10.90;99.20
65036;DHT22;51603;49.300;8.880;2024-02-21T13:49:43;11.00;98.90
65036;DHT22;51603;49.300;8.880;2024-02-21T13:52:09;10.80;99.30
65036;DHT22;51603;49.300;8.880;2024-02-21T13:54:35;10.80;99.30
65036;DHT22;51603;49.300;8.880;2024-02-21T13:57:01;10.80;99.40
65036;DHT22;51603;49.300;8.880;2024-02-21T13:59:28;10.80;99.10
65036;DHT22;51603;49.300;8.880;2024-02-21T14:01:53;10.80;99.30
65036;DHT22;51603;49.300;8.880;2024-02-21T14:04:19;10.90;99.00
65036;DHT22;51603;49.300;8.880;2024-02-21T14:06:45;10.90;98.80
65036;DHT22;51603;49.300;8.880;2024-02-21T14:09:11;10.80;98.20
65036;DHT22;51603;49.300;8.880;2024-02-21T14:11:37;10.80;97.90
65036;DHT22;51603;49.300;8.880;2024-02-21T14:14:04;10.80;97.60
65036;DHT22;51603;49.300;8.880;2024-02-21T14:16:30;10.80;97.40
65036;DHT22;51603;49.300;8.880;2024-02-21T14:18:55;10.90;98.10
65036;DHT22;51603;49.300;8.880;2024-02-21T14:21:21;10.90;97.70
65036;DHT22;51603;49.300;8.880;2024-02-21T14:23:46;10.90;97.50
65036;DHT22;51603;49.300;8.880;2024-02-21T14:26:15;10.90;97.10
65036;DHT22;51603;49.300;8.880;2024-02-21T14:28:40;10.90;96.80
65036;DHT22;51603;49.300;8.880;2024-02-21T14:31:07;10.90;97.70
65036;DHT22;51603;49.300;8.880;2024-02-21T14:33:35;10.90;97.50
65036;DHT22;51603;49.300;8.880;2024-02-21T14:36:01;10.80;97.30
65036;DHT22;51603;49.300;8.880;2024-02-21T14:38:28;10.90;97.20
65036;DHT22;51603;49.300;8.880;2024-02-21T14:40:53;10.90;97.30
65036;DHT22;51603;49.300;8.880;2024-02-21T14:43:19;10.80;97.20
65036;DHT22;51603;49.300;8.880;2024-02-21T14:45:47;10.90;97.50
65036;DHT22;51603;49.300;8.880;2024-02-21T14:48:13;10.80;97.10
65036;DHT22;51603;49.300;8.880;2024-02-21T14:50:39;10.80;97.80
65036;DHT22;51603;49.300;8.880;2024-02-21T14:53:05;10.80;97.90
65036;DHT22;51603;49.300;8.880;2024-02-21T14:55:30;10.80;97.80
65036;DHT22;51603;49.300;8.880;2024-02-21T14:57:56;10.80;97.60
65036;DHT22;51603;49.300;8.880;2024-02-21T15:00:21;10.80;97.80
65036;DHT22;51603;49.300;8.880;2024-02-21T15:02:55;10.80;98.60
65036;DHT22;51603;49.300;8.880;2024-02-21T15:05:21;10.80;98.50
65036;DHT22;51603;49.300;8.880;2024-02-21T15:07:46;10.90;99.00
65036;DHT22;51603;49.300;8.880;2024-02-21T15:10:12;10.90;98.30
65036;DHT22;51603;49.300;8.880;2024-02-21T15:12:37;10.90;98.30
65036;DHT22;51603;49.300;8.880;2024-02-21T15:15:03;10.80;98.30
65036;DHT22;51603;49.300;8.880;2024-02-21T15:17:29;10.90;98.80
65036;DHT22;51603;49.300;8.880;2024-02-21T15:19:55;10.90;98.60
65036;DHT22;51603;49.300;8.880;2024-02-21T15:22:21;10.90;98.50
65036;DHT22;51603;49.300;8.880;2024-02-21T15:24:50;10.90;98.80
65036;DHT22;51603;49.300;8.880;2024-02-21T15:27:16;10.80;99.40
65036;DHT22;51603;49.300;8.880;2024-02-21T15:29:44;10.90;99.60
65036;DHT22;51603;49.300;8.880;2024-02-21T15:32:10;10.80;99.30
65036;DHT22;51603;49.300;8.880;2024-02-21T15:34:38;10.80;99.00
65036;DHT22;51603;49.300;8.880;2024-02-21T15:37:04;10.80;99.10
65036;DHT22;51603;49.300;8.880;2024-02-21T15:39:30;10.80;99.70
65036;DHT22;51603;49.300;8.880;2024-02-21T15:41:55;10.80;99.50
65036;DHT22;51603;49.300;8.880;2024-02-21T15:44:21;10.70;99.50
65036;DHT22;51603;49.300;8.880;2024-02-21T15:46:50;10.70;99.80